createdAt,value
2023-12-24T00:00:07.189Z,1013.16
2023-12-24T00:02:33.999Z,1013.01
2023-12-24T00:05:00.987Z,1013.03
2023-12-24T00:07:28.601Z,1013.15
2023-12-24T00:09:55.372Z,1013.15
2023-12-24T00:12:22.131Z,1013.08
2023-12-24T00:14:48.898Z,1013.22
2023-12-24T00:17:17.060Z,1013.30
2023-12-24T00:19:43.961Z,1013.65
2023-12-24T00:22:10.803Z,1013.70
2023-12-24T00:24:37.554Z,1013.55
2023-12-24T00:27:04.928Z,1013.38
2023-12-24T00:29:31.835Z,1013.39
2023-12-24T00:31:58.734Z,1013.32
2023-12-24T00:34:26.939Z,1013.30
2023-12-24T00:36:53.750Z,1013.29
2023-12-24T00:39:20.838Z,1013.31
2023-12-24T00:41:47.611Z,1013.20
2023-12-24T00:44:14.518Z,1013.26
2023-12-24T00:46:41.309Z,1013.13
2023-12-24T00:49:08.246Z,1013.06
2023-12-24T00:51:41.958Z,1013.29
2023-12-24T00:54:08.763Z,1013.41
2023-12-24T00:56:35.662Z,1013.36
2023-12-24T00:59:02.509Z,1013.43
2023-12-24T01:01:29.310Z,1013.47
2023-12-24T01:03:56.096Z,1013.48
2023-12-24T01:06:23.072Z,1013.57
2023-12-24T01:08:51.344Z,1013.52
2023-12-24T01:11:18.138Z,1013.58
2023-12-24T01:13:44.958Z,1013.85
2023-12-24T01:16:11.809Z,1013.85
2023-12-24T01:18:38.754Z,1013.79
2023-12-24T01:21:05.755Z,1013.81
2023-12-24T01:23:32.710Z,1013.85
2023-12-24T01:26:00.888Z,1013.90
2023-12-24T01:28:27.703Z,1014.02
2023-12-24T01:30:54.616Z,1014.03
2023-12-24T01:33:21.625Z,1014.00
2023-12-24T01:35:48.560Z,1014.50
2023-12-24T01:38:15.632Z,1014.25
2023-12-24T01:40:45.878Z,1014.47
2023-12-24T01:43:14.415Z,1014.44
2023-12-24T01:45:41.231Z,1014.52
2023-12-24T01:48:08.340Z,1014.62
2023-12-24T01:50:36.262Z,1014.73
2023-12-24T01:53:03.429Z,1014.92
2023-12-24T01:55:31.425Z,1014.62
2023-12-24T01:57:58.484Z,1014.71
2023-12-24T02:00:26.836Z,1014.52
2023-12-24T02:02:54.785Z,1014.80
2023-12-24T02:05:21.961Z,1014.48
2023-12-24T02:07:50.117Z,1014.90
2023-12-24T02:10:17.704Z,1014.66
2023-12-24T02:12:45.638Z,1014.87
2023-12-24T02:15:12.406Z,1014.45
2023-12-24T02:17:41.269Z,1014.87
2023-12-24T02:20:08.919Z,1014.99
2023-12-24T02:22:37.130Z,1014.73
2023-12-24T02:25:06.153Z,1014.90
2023-12-24T02:27:38.279Z,1014.88
2023-12-24T02:30:11.971Z,1014.92
2023-12-24T02:32:40.564Z,1014.85
2023-12-24T02:35:09.630Z,1014.89
2023-12-24T02:37:38.104Z,1014.79
2023-12-24T02:40:05.831Z,1014.94
2023-12-24T02:42:32.799Z,1014.80
2023-12-24T02:44:59.569Z,1014.88
2023-12-24T02:47:26.485Z,1014.74
2023-12-24T02:49:53.295Z,1014.81
2023-12-24T02:52:20.402Z,1014.74
2023-12-24T02:54:48.638Z,1014.71
2023-12-24T02:57:15.477Z,1014.74
2023-12-24T02:59:42.356Z,1014.64
2023-12-24T03:02:09.231Z,1014.69
2023-12-24T03:04:36.010Z,1014.69
2023-12-24T03:07:02.848Z,1014.70
2023-12-24T03:09:29.632Z,1014.74
2023-12-24T03:11:57.873Z,1014.80
2023-12-24T03:14:24.671Z,1014.86
2023-12-24T03:16:51.479Z,1014.88
2023-12-24T03:19:18.296Z,1014.84
2023-12-24T03:21:45.286Z,1015.00
2023-12-24T03:24:12.230Z,1014.82
2023-12-24T03:26:39.112Z,1015.09
2023-12-24T03:29:07.377Z,1014.97
2023-12-24T03:31:34.304Z,1015.08
2023-12-24T03:34:01.150Z,1015.04
2023-12-24T03:36:28.030Z,1015.04
2023-12-24T03:38:54.786Z,1015.06
2023-12-24T03:41:21.736Z,1015.31
2023-12-24T03:43:48.594Z,1015.12
2023-12-24T03:46:19.578Z,1015.30
2023-12-24T03:48:46.477Z,1015.08
2023-12-24T03:51:13.711Z,1015.20
2023-12-24T03:53:40.652Z,1015.28
2023-12-24T03:56:10.331Z,1015.19
2023-12-24T03:58:38.516Z,1015.21
2023-12-24T04:01:07.863Z,1015.38
2023-12-24T04:03:36.192Z,1015.22
2023-12-24T04:06:09.776Z,1015.26
2023-12-24T04:08:36.765Z,1015.33
2023-12-24T04:11:03.851Z,1015.20
2023-12-24T04:13:30.624Z,1015.26
2023-12-24T04:15:57.578Z,1015.31
2023-12-24T04:18:24.489Z,1015.32
2023-12-24T04:20:52.740Z,1015.55
2023-12-24T04:23:19.521Z,1015.50
2023-12-24T04:25:46.346Z,1015.49
2023-12-24T04:28:13.208Z,1015.39
2023-12-24T04:30:40.162Z,1015.40
2023-12-24T04:33:07.126Z,1015.37
2023-12-24T04:35:34.181Z,1015.49
2023-12-24T04:38:04.109Z,1015.33
2023-12-24T04:40:30.948Z,1015.37
2023-12-24T04:42:57.787Z,1015.52
2023-12-24T04:45:24.649Z,1015.46
2023-12-24T04:47:51.469Z,1015.36
2023-12-24T04:50:18.367Z,1015.52
2023-12-24T04:52:45.159Z,1015.29
2023-12-24T04:55:13.434Z,1015.54
2023-12-24T04:57:40.268Z,1015.41
2023-12-24T05:00:08.305Z,1015.56
2023-12-24T05:02:35.205Z,1015.58
2023-12-24T05:05:03.784Z,1015.42
2023-12-24T05:07:30.766Z,1015.36
2023-12-24T05:09:57.635Z,1015.44
2023-12-24T05:12:25.835Z,1015.37
2023-12-24T05:14:52.642Z,1015.35
2023-12-24T05:17:19.466Z,1015.53
2023-12-24T05:19:46.270Z,1015.56
2023-12-24T05:22:13.088Z,1015.58
2023-12-24T05:24:39.958Z,1015.65
2023-12-24T05:27:06.806Z,1015.58
2023-12-24T05:29:34.957Z,1015.69
2023-12-24T05:32:02.174Z,1015.84
2023-12-24T05:34:29.007Z,1015.95
2023-12-24T05:36:55.781Z,1015.93
2023-12-24T05:39:22.639Z,1015.78
2023-12-24T05:41:49.458Z,1015.92
2023-12-24T05:44:16.360Z,1015.87
2023-12-24T05:46:44.511Z,1015.98
2023-12-24T05:49:11.638Z,1015.95
2023-12-24T05:51:38.589Z,1016.05
2023-12-24T05:54:05.466Z,1015.98
2023-12-24T05:56:32.491Z,1016.11
2023-12-24T05:58:59.357Z,1016.16
2023-12-24T06:01:26.389Z,1016.21
2023-12-24T06:03:54.586Z,1016.16
2023-12-24T06:06:21.452Z,1016.27
2023-12-24T06:08:48.360Z,1016.52
2023-12-24T06:11:18.942Z,1016.55
2023-12-24T06:13:45.904Z,1016.59
2023-12-24T06:16:12.772Z,1016.41
2023-12-24T06:18:39.838Z,1016.47
2023-12-24T06:21:09.810Z,1016.48
2023-12-24T06:23:36.887Z,1016.46
2023-12-24T06:26:05.018Z,1016.41
2023-12-24T06:28:31.959Z,1016.42
2023-12-24T06:30:58.889Z,1016.50
2023-12-24T06:33:25.803Z,1016.47
2023-12-24T06:35:52.660Z,1016.45
2023-12-24T06:38:21.540Z,1016.25
2023-12-24T06:40:48.548Z,1016.28
2023-12-24T06:43:15.313Z,1016.42
2023-12-24T06:45:42.045Z,1016.45
2023-12-24T06:48:08.998Z,1016.62
2023-12-24T06:50:35.961Z,1016.48
2023-12-24T06:53:02.928Z,1016.35
2023-12-24T06:55:31.052Z,1016.55
2023-12-24T06:57:57.790Z,1016.56
2023-12-24T07:00:24.640Z,1016.57
2023-12-24T07:02:51.658Z,1016.64
2023-12-24T07:05:18.644Z,1016.39
2023-12-24T07:07:45.422Z,1016.36
2023-12-24T07:10:12.168Z,1016.27
2023-12-24T07:12:40.503Z,1016.42
2023-12-24T07:15:08.333Z,1016.44
2023-12-24T07:20:02.222Z,1016.41
2023-12-24T07:22:29.091Z,1016.30
2023-12-24T07:24:55.925Z,1016.15
2023-12-24T07:27:22.864Z,1016.39
2023-12-24T07:29:51.086Z,1016.31
2023-12-24T07:32:17.936Z,1016.17
2023-12-24T07:34:44.814Z,1016.32
2023-12-24T07:37:11.698Z,1016.28
2023-12-24T07:39:38.462Z,1016.41
2023-12-24T07:42:06.218Z,1016.57
2023-12-24T07:44:33.027Z,1016.39
2023-12-24T07:47:01.287Z,1016.72
2023-12-24T07:49:28.067Z,1016.66
2023-12-24T07:51:54.912Z,1016.55
2023-12-24T07:54:21.797Z,1016.81
2023-12-24T07:56:48.558Z,1016.72
2023-12-24T07:59:15.405Z,1016.66
2023-12-24T08:01:42.234Z,1016.64
2023-12-24T08:04:10.373Z,1016.46
2023-12-24T08:06:37.374Z,1016.80
2023-12-24T08:09:04.572Z,1016.84
2023-12-24T08:11:31.327Z,1016.63
2023-12-24T08:13:58.224Z,1016.62
2023-12-24T08:16:25.074Z,1016.75
2023-12-24T08:18:52.091Z,1016.68
2023-12-24T08:21:20.312Z,1016.47
2023-12-24T08:23:47.115Z,1016.51
2023-12-24T08:26:14.980Z,1016.42
2023-12-24T08:28:42.248Z,1016.33
2023-12-24T08:31:09.014Z,1016.32
2023-12-24T08:33:35.885Z,1016.33
2023-12-24T08:36:03.401Z,1016.63
2023-12-24T08:38:31.740Z,1016.38
2023-12-24T08:40:58.521Z,1016.48
2023-12-24T08:43:25.355Z,1016.59
2023-12-24T08:45:52.207Z,1016.51
2023-12-24T08:48:19.403Z,1016.63
2023-12-24T08:50:46.406Z,1016.46
2023-12-24T08:53:13.458Z,1016.49
2023-12-24T08:55:41.655Z,1016.49
2023-12-24T08:58:08.397Z,1016.56
2023-12-24T09:00:35.611Z,1016.56
2023-12-24T09:03:02.802Z,1016.67
2023-12-24T09:05:29.656Z,1016.55
2023-12-24T09:07:56.635Z,1016.42
2023-12-24T09:10:23.494Z,1016.38
2023-12-24T09:12:51.879Z,1016.23
2023-12-24T09:15:18.903Z,1016.21
2023-12-24T09:17:45.858Z,1016.42
2023-12-24T09:20:12.831Z,1016.41
2023-12-24T09:22:39.689Z,1016.34
2023-12-24T09:25:07.447Z,1016.38
2023-12-24T09:27:34.237Z,1016.32
2023-12-24T09:30:02.588Z,1016.35
2023-12-24T09:32:29.491Z,1016.35
2023-12-24T09:34:56.344Z,1016.36
2023-12-24T09:37:23.273Z,1016.30
2023-12-24T09:39:50.054Z,1016.38
2023-12-24T09:42:17.625Z,1016.35
2023-12-24T09:44:44.467Z,1016.42
2023-12-24T09:47:12.663Z,1016.43
2023-12-24T09:49:39.561Z,1016.41
2023-12-24T09:52:07.020Z,1016.39
2023-12-24T09:54:33.792Z,1016.40
2023-12-24T09:57:00.592Z,1016.38
2023-12-24T09:59:27.455Z,1016.27
2023-12-24T10:01:54.297Z,1016.09
2023-12-24T10:04:22.447Z,1016.21
2023-12-24T10:06:53.671Z,1016.09
2023-12-24T10:09:21.668Z,1016.11
2023-12-24T10:12:03.159Z,1016.14
2023-12-24T10:14:30.062Z,1016.16
2023-12-24T10:16:56.833Z,1016.13
2023-12-24T10:19:26.342Z,1016.24
2023-12-24T10:22:00.689Z,1016.02
2023-12-24T10:24:28.476Z,1016.04
2023-12-24T10:27:03.763Z,1016.02
2023-12-24T10:29:30.594Z,1015.96
2023-12-24T10:31:57.404Z,1015.94
2023-12-24T10:34:26.084Z,1015.74
2023-12-24T10:36:52.892Z,1015.81
2023-12-24T10:39:26.373Z,1015.65
2023-12-24T10:41:54.705Z,1015.73
2023-12-24T10:44:21.584Z,1015.57
2023-12-24T10:46:48.617Z,1015.28
2023-12-24T10:49:15.695Z,1015.38
2023-12-24T10:51:43.908Z,1015.23
2023-12-24T10:54:11.317Z,1014.90
2023-12-24T10:56:53.673Z,1014.98
2023-12-24T10:59:31.235Z,1014.87
2023-12-24T11:01:58.385Z,1014.72
2023-12-24T11:04:43.924Z,1014.73
2023-12-24T11:07:50.471Z,1014.56
2023-12-24T11:10:39.992Z,1014.62
2023-12-24T11:13:12.625Z,1014.53
2023-12-24T11:15:41.186Z,1014.66
2023-12-24T11:18:08.344Z,1014.62
2023-12-24T11:20:42.923Z,1014.61
2023-12-24T11:23:16.265Z,1014.51
2023-12-24T11:25:44.929Z,1014.40
2023-12-24T11:28:13.261Z,1014.40
2023-12-24T11:31:13.808Z,1014.41
2023-12-24T11:33:50.220Z,1014.43
2023-12-24T11:36:18.722Z,1014.45
2023-12-24T11:38:50.430Z,1014.43
2023-12-24T11:41:19.904Z,1014.46
2023-12-24T11:43:54.843Z,1014.30
2023-12-24T11:46:22.227Z,1014.25
2023-12-24T11:48:49.686Z,1014.11
2023-12-24T11:51:16.938Z,1013.99
2023-12-24T11:53:44.129Z,1014.00
2023-12-24T11:56:13.878Z,1014.03
2023-12-24T11:58:42.813Z,1013.93
2023-12-24T12:01:10.584Z,1014.03
2023-12-24T12:03:38.068Z,1014.02
2023-12-24T12:06:05.730Z,1014.10
2023-12-24T12:08:35.641Z,1014.08
2023-12-24T12:11:02.808Z,1014.20
2023-12-24T12:13:30.927Z,1014.18
2023-12-24T12:15:57.682Z,1014.07
2023-12-24T12:18:24.569Z,1014.03
2023-12-24T12:20:51.503Z,1014.05
2023-12-24T12:23:18.353Z,1014.08
2023-12-24T12:25:45.273Z,1014.05
2023-12-24T12:28:12.271Z,1014.04
2023-12-24T12:30:40.544Z,1014.01
2023-12-24T12:33:09.325Z,1014.05
2023-12-24T12:35:36.631Z,1013.95
2023-12-24T12:38:03.647Z,1013.93
2023-12-24T12:40:36.228Z,1013.83
2023-12-24T12:43:07.683Z,1013.90
2023-12-24T12:45:34.530Z,1013.86
2023-12-24T12:48:02.954Z,1013.70
2023-12-24T12:50:29.855Z,1013.81
2023-12-24T12:52:56.683Z,1013.99
2023-12-24T12:55:23.522Z,1013.95
2023-12-24T12:57:52.709Z,1014.08
2023-12-24T13:00:21.488Z,1014.00
2023-12-24T13:02:49.089Z,1013.91
2023-12-24T13:05:27.758Z,1013.86
2023-12-24T13:07:55.091Z,1014.04
2023-12-24T13:10:31.541Z,1014.07
2023-12-24T13:13:18.307Z,1014.11
2023-12-24T13:15:46.133Z,1014.03
2023-12-24T13:18:17.033Z,1014.02
2023-12-24T13:20:47.129Z,1014.10
2023-12-24T13:23:14.197Z,1014.10
2023-12-24T13:25:41.980Z,1014.13
2023-12-24T13:28:08.921Z,1014.31
2023-12-24T13:30:35.726Z,1014.24
2023-12-24T13:33:02.898Z,1014.27
2023-12-24T13:35:34.482Z,1014.28
2023-12-24T13:38:04.737Z,1014.05
2023-12-24T13:40:31.952Z,1014.17
2023-12-24T13:42:58.690Z,1014.12
2023-12-24T13:45:25.647Z,1014.22
2023-12-24T13:47:52.646Z,1014.10
2023-12-24T13:50:19.574Z,1014.14
2023-12-24T13:52:46.352Z,1014.15
2023-12-24T13:55:14.459Z,1014.14
2023-12-24T13:57:41.201Z,1014.26
2023-12-24T14:00:09.214Z,1014.18
2023-12-24T14:02:36.045Z,1014.33
2023-12-24T14:05:03.260Z,1014.17
2023-12-24T14:07:31.908Z,1014.12
2023-12-24T14:09:59.128Z,1014.14
2023-12-24T14:12:27.745Z,1014.25
2023-12-24T14:14:54.607Z,1014.32
2023-12-24T14:17:21.445Z,1014.21
2023-12-24T14:19:48.258Z,1014.25
2023-12-24T14:22:14.982Z,1014.33
2023-12-24T14:24:41.806Z,1014.47
2023-12-24T14:27:08.624Z,1014.53
2023-12-24T14:29:39.092Z,1014.51
2023-12-24T14:32:06.325Z,1014.42
2023-12-24T14:34:33.320Z,1014.46
2023-12-24T14:37:00.153Z,1014.53
2023-12-24T14:39:27.380Z,1014.48
2023-12-24T14:41:54.277Z,1014.49
2023-12-24T14:44:21.525Z,1014.49
2023-12-24T14:46:56.439Z,1014.60
2023-12-24T14:49:23.409Z,1014.79
2023-12-24T14:51:50.327Z,1014.80
2023-12-24T14:54:17.113Z,1014.80
2023-12-24T14:56:44.009Z,1014.66
2023-12-24T14:59:11.425Z,1014.81
2023-12-24T15:01:38.346Z,1014.83
2023-12-24T15:04:06.479Z,1014.79
2023-12-24T15:06:33.250Z,1014.81
2023-12-24T15:09:00.102Z,1014.96
2023-12-24T15:11:26.922Z,1014.90
2023-12-24T15:13:53.717Z,1015.00
2023-12-24T15:16:20.543Z,1014.91
2023-12-24T15:18:47.396Z,1014.86
2023-12-24T15:21:15.746Z,1014.88
2023-12-24T15:23:42.547Z,1014.98
2023-12-24T15:26:09.496Z,1015.02
2023-12-24T15:28:36.303Z,1015.01
2023-12-24T15:31:03.311Z,1015.01
2023-12-24T15:33:30.260Z,1015.09
2023-12-24T15:35:57.275Z,1014.96
2023-12-24T15:38:25.528Z,1014.94
2023-12-24T15:40:52.330Z,1014.96
2023-12-24T15:43:19.107Z,1014.98
2023-12-24T15:45:45.876Z,1015.04
2023-12-24T15:48:12.865Z,1014.96
2023-12-24T15:50:39.757Z,1015.00
2023-12-24T15:53:06.584Z,1015.17
2023-12-24T15:55:34.801Z,1015.20
2023-12-24T15:58:01.620Z,1015.09
2023-12-24T16:00:28.454Z,1015.24
2023-12-24T16:02:55.489Z,1015.21
2023-12-24T16:05:22.597Z,1015.16
2023-12-24T16:07:49.390Z,1015.17
2023-12-24T16:10:16.485Z,1015.16
2023-12-24T16:12:44.652Z,1015.35
2023-12-24T16:15:11.652Z,1015.28
2023-12-24T16:17:38.491Z,1015.31
2023-12-24T16:20:06.763Z,1015.26
2023-12-24T16:22:33.565Z,1015.27
2023-12-24T16:25:00.443Z,1015.40
2023-12-24T16:27:27.302Z,1015.33
2023-12-24T16:29:55.659Z,1015.45
2023-12-24T16:32:22.593Z,1015.45
2023-12-24T16:34:49.427Z,1015.29
2023-12-24T16:37:16.370Z,1015.28
2023-12-24T16:39:43.164Z,1015.37
2023-12-24T16:42:10.005Z,1015.37
2023-12-24T16:44:36.948Z,1015.43
2023-12-24T16:47:05.419Z,1015.51
2023-12-24T16:49:32.469Z,1015.55
2023-12-24T16:51:59.442Z,1015.69
2023-12-24T16:54:26.213Z,1015.76
2023-12-24T16:56:53.060Z,1015.76
2023-12-24T16:59:19.976Z,1015.77
2023-12-24T17:01:47.044Z,1015.89
2023-12-24T17:04:17.597Z,1015.86
2023-12-24T17:06:44.474Z,1015.88
2023-12-24T17:09:11.286Z,1015.91
2023-12-24T17:11:38.149Z,1016.06
2023-12-24T17:14:04.945Z,1016.10
2023-12-24T17:16:31.936Z,1016.09
2023-12-24T17:18:58.773Z,1016.02
2023-12-24T17:21:27.697Z,1016.20
2023-12-24T17:23:54.494Z,1016.27
2023-12-24T17:26:21.713Z,1016.25
2023-12-24T17:28:48.904Z,1016.31
2023-12-24T17:31:15.986Z,1016.25
2023-12-24T17:33:45.507Z,1016.15
2023-12-24T17:36:16.697Z,1016.16
2023-12-24T17:38:45.765Z,1016.34
2023-12-24T17:41:18.009Z,1016.31
2023-12-24T17:43:45.028Z,1016.35
2023-12-24T17:46:12.024Z,1016.34
2023-12-24T17:48:39.049Z,1016.36
2023-12-24T17:51:05.980Z,1016.28
2023-12-24T17:53:32.812Z,1016.14
2023-12-24T17:56:01.016Z,1016.15
2023-12-24T17:58:27.835Z,1016.19
2023-12-24T18:00:54.727Z,1016.09
2023-12-24T18:03:21.528Z,1016.13
2023-12-24T18:05:48.702Z,1016.27
2023-12-24T18:08:15.699Z,1016.27
2023-12-24T18:10:42.556Z,1016.23
2023-12-24T18:13:10.729Z,1016.07
2023-12-24T18:15:37.506Z,1016.08
2023-12-24T18:18:04.973Z,1016.16
2023-12-24T18:20:32.046Z,1016.17
2023-12-24T18:22:59.009Z,1016.14
2023-12-24T18:25:26.083Z,1016.22
2023-12-24T18:27:52.839Z,1016.18
2023-12-24T18:30:21.063Z,1016.23
2023-12-24T18:32:48.042Z,1016.03
2023-12-24T18:35:15.493Z,1016.12
2023-12-24T18:37:42.290Z,1016.24
2023-12-24T18:40:09.751Z,1016.17
2023-12-24T18:42:36.518Z,1016.19
2023-12-24T18:45:03.610Z,1016.35
2023-12-24T18:47:31.902Z,1016.45
2023-12-24T18:49:58.826Z,1016.40
2023-12-24T18:52:25.672Z,1016.39
2023-12-24T18:54:52.397Z,1016.37
2023-12-24T18:57:20.198Z,1016.20
2023-12-24T18:59:48.165Z,1016.10
2023-12-24T19:02:15.112Z,1016.18
2023-12-24T19:04:43.305Z,1016.20
2023-12-24T19:07:10.319Z,1016.15
2023-12-24T19:09:37.065Z,1016.24
2023-12-24T19:12:04.419Z,1016.20
2023-12-24T19:14:31.314Z,1016.18
2023-12-24T19:16:58.465Z,1016.21
2023-12-24T19:19:25.462Z,1016.17
2023-12-24T19:21:54.120Z,1016.25
2023-12-24T19:24:21.095Z,1016.29
2023-12-24T19:26:48.059Z,1016.35
2023-12-24T19:29:15.657Z,1016.33
2023-12-24T19:31:43.109Z,1016.31
2023-12-24T19:34:09.971Z,1016.20
2023-12-24T19:36:37.660Z,1016.28
2023-12-24T19:39:06.235Z,1016.49
2023-12-24T19:41:33.407Z,1016.22
2023-12-24T19:44:00.640Z,1016.15
2023-12-24T19:46:29.142Z,1016.09
2023-12-24T19:48:56.171Z,1016.06
2023-12-24T19:51:23.724Z,1016.15
2023-12-24T19:53:52.984Z,1016.14
2023-12-24T19:56:21.620Z,1016.01
2023-12-24T19:58:49.273Z,1015.92
2023-12-24T20:01:16.185Z,1016.04
2023-12-24T20:03:43.474Z,1016.14
2023-12-24T20:06:11.065Z,1016.18
2023-12-24T20:08:38.016Z,1016.15
2023-12-24T20:11:04.932Z,1016.11
2023-12-24T20:13:33.404Z,1016.27
2023-12-24T20:16:00.209Z,1016.50
2023-12-24T20:18:27.256Z,1016.43
2023-12-24T20:20:54.218Z,1016.37
2023-12-24T20:23:21.180Z,1016.40
2023-12-24T20:25:48.304Z,1016.35
2023-12-24T20:28:15.134Z,1016.33
2023-12-24T20:30:43.508Z,1016.34
2023-12-24T20:33:10.549Z,1016.27
2023-12-24T20:35:37.576Z,1016.33
2023-12-24T20:38:04.989Z,1016.52
2023-12-24T20:40:34.698Z,1016.45
2023-12-24T20:43:01.720Z,1016.63
2023-12-24T20:45:28.915Z,1016.76
2023-12-24T20:48:09.468Z,1016.76
2023-12-24T20:50:37.527Z,1016.75
2023-12-24T20:53:04.521Z,1016.74
2023-12-24T20:55:31.298Z,1016.70
2023-12-24T20:57:58.220Z,1016.63
2023-12-24T21:00:25.081Z,1016.61
2023-12-24T21:02:52.364Z,1016.59
2023-12-24T21:05:21.028Z,1016.57
2023-12-24T21:07:48.032Z,1016.57
2023-12-24T21:10:14.943Z,1016.81
2023-12-24T21:12:41.815Z,1016.83
2023-12-24T21:15:09.393Z,1016.79
2023-12-24T21:17:36.388Z,1016.87
2023-12-24T21:20:04.059Z,1016.80
2023-12-24T21:22:32.288Z,1016.79
2023-12-24T21:24:59.144Z,1016.85
2023-12-24T21:27:25.929Z,1016.88
2023-12-24T21:29:52.813Z,1017.06
2023-12-24T21:32:19.640Z,1016.93
2023-12-24T21:34:46.929Z,1016.86
2023-12-24T21:37:13.688Z,1016.75
2023-12-24T21:39:41.965Z,1016.77
2023-12-24T21:42:08.764Z,1016.80
2023-12-24T21:44:36.720Z,1016.82
2023-12-24T21:47:04.525Z,1016.71
2023-12-24T21:49:31.385Z,1016.70
2023-12-24T21:51:58.226Z,1016.69
2023-12-24T21:54:25.032Z,1016.85
2023-12-24T21:56:53.436Z,1016.85
2023-12-24T21:59:20.299Z,1016.76
2023-12-24T22:01:47.138Z,1016.63
2023-12-24T22:04:14.054Z,1016.54
2023-12-24T22:06:41.953Z,1016.44
2023-12-24T22:09:08.758Z,1016.51
2023-12-24T22:11:35.829Z,1016.39
2023-12-24T22:14:04.015Z,1016.35
2023-12-24T22:16:30.840Z,1016.19
2023-12-24T22:18:57.794Z,1016.13
2023-12-24T22:21:24.763Z,1016.13
2023-12-24T22:23:51.725Z,1016.00
2023-12-24T22:26:19.969Z,1016.11
2023-12-24T22:28:46.851Z,1016.21
2023-12-24T22:31:22.491Z,1016.22
2023-12-24T22:33:49.565Z,1016.43
2023-12-24T22:36:16.405Z,1016.35
2023-12-24T22:38:43.184Z,1016.25
2023-12-24T22:41:10.020Z,1016.21
2023-12-24T22:43:36.877Z,1015.98
2023-12-24T22:46:04.044Z,1015.96
2023-12-24T22:48:32.327Z,1016.10
2023-12-24T22:50:59.414Z,1015.94
2023-12-24T22:53:26.458Z,1015.95
2023-12-24T22:55:53.345Z,1016.08
2023-12-24T22:58:20.095Z,1015.98
2023-12-24T23:00:47.072Z,1016.02
2023-12-24T23:03:13.945Z,1016.09
2023-12-24T23:05:42.555Z,1016.23
2023-12-24T23:08:09.516Z,1016.37
2023-12-24T23:10:36.276Z,1016.28
2023-12-24T23:13:03.311Z,1016.15
2023-12-24T23:15:30.269Z,1016.09
2023-12-24T23:17:59.372Z,1016.06
2023-12-24T23:20:26.576Z,1016.06
2023-12-24T23:22:55.322Z,1016.00
2023-12-24T23:25:22.142Z,1015.97
2023-12-24T23:27:48.951Z,1015.92
2023-12-24T23:30:15.832Z,1015.99
2023-12-24T23:32:42.764Z,1015.99
2023-12-24T23:35:09.757Z,1016.06
2023-12-24T23:37:36.670Z,1015.97
2023-12-24T23:40:06.155Z,1015.85
2023-12-24T23:42:33.439Z,1015.86
2023-12-24T23:45:00.692Z,1015.84
2023-12-24T23:47:27.623Z,1015.84
2023-12-24T23:49:54.550Z,1015.84
2023-12-24T23:52:21.355Z,1015.83
2023-12-24T23:54:48.200Z,1015.72
2023-12-24T23:57:16.433Z,1015.62
2023-12-24T23:59:43.284Z,1015.66
